createdAt,value
2019-05-23T00:01:57.763Z,63.78
2019-05-23T00:04:36.321Z,63.83
2019-05-23T00:07:02.557Z,63.61
2019-05-23T00:09:27.726Z,63.82
2019-05-23T00:12:04.430Z,63.90
2019-05-23T00:14:39.472Z,64.08
2019-05-23T00:17:04.264Z,64.31
2019-05-23T00:19:29.589Z,64.20
2019-05-23T00:21:56.090Z,64.15
2019-05-23T00:24:22.274Z,64.22
2019-05-23T00:26:47.232Z,64.09
2019-05-23T00:29:12.307Z,64.08
2019-05-23T00:31:38.583Z,64.11
2019-05-23T00:34:04.864Z,64.23
2019-05-23T00:36:30.950Z,64.18
2019-05-23T00:38:56.774Z,64.34
2019-05-23T00:41:23.928Z,64.34
2019-05-23T00:43:48.991Z,64.34
2019-05-23T00:46:15.122Z,64.32
2019-05-23T00:48:41.216Z,64.32
2019-05-23T00:51:06.530Z,64.23
2019-05-23T00:53:31.731Z,64.28
2019-05-23T00:55:56.482Z,64.39
2019-05-23T00:58:21.109Z,65.01
2019-05-23T01:00:45.901Z,65.01
2019-05-23T01:03:12.694Z,65.03
2019-05-23T01:05:41.536Z,64.78
2019-05-23T01:08:07.299Z,64.98
2019-05-23T01:10:32.229Z,64.97
2019-05-23T01:12:58.327Z,64.90
2019-05-23T01:15:24.735Z,65.04
2019-05-23T01:17:50.096Z,65.45
2019-05-23T01:20:17.164Z,65.17
2019-05-23T01:22:42.079Z,64.98
2019-05-23T01:25:09.061Z,64.86
2019-05-23T01:27:34.573Z,64.71
2019-05-23T01:29:59.694Z,64.48
2019-05-23T01:32:25.816Z,65.04
2019-05-23T01:34:51.115Z,65.04
2019-05-23T01:37:17.596Z,64.93
2019-05-23T01:39:43.077Z,64.69
2019-05-23T01:42:09.499Z,64.90
2019-05-23T01:44:35.826Z,65.16
2019-05-23T01:47:00.801Z,65.76
2019-05-23T01:49:26.101Z,65.28
2019-05-23T01:51:51.135Z,65.44
2019-05-23T01:54:15.902Z,66.04
2019-05-23T01:56:41.270Z,65.74
2019-05-23T01:59:06.429Z,65.76
2019-05-23T02:01:30.907Z,65.37
2019-05-23T02:03:56.019Z,65.43
2019-05-23T02:06:20.728Z,65.44
2019-05-23T02:08:45.539Z,66.04
2019-05-23T02:11:12.109Z,65.86
2019-05-23T02:13:37.214Z,65.63
2019-05-23T02:16:01.982Z,65.50
2019-05-23T02:18:28.372Z,65.34
2019-05-23T02:20:52.823Z,65.66
2019-05-23T02:23:19.884Z,65.43
2019-05-23T02:25:46.212Z,65.80
2019-05-23T02:28:13.565Z,65.57
2019-05-23T02:30:39.754Z,65.35
2019-05-23T02:33:14.168Z,65.24
2019-05-23T02:35:39.348Z,65.43
2019-05-23T02:38:11.992Z,65.76
2019-05-23T02:40:46.893Z,65.56
2019-05-23T02:43:25.675Z,65.24
2019-05-23T02:45:53.394Z,65.71
2019-05-23T02:48:22.824Z,66.16
2019-05-23T02:50:53.237Z,66.01
2019-05-23T02:53:19.854Z,65.80
2019-05-23T02:55:46.350Z,65.89
2019-05-23T02:58:33.620Z,65.86
2019-05-23T03:01:05.507Z,65.78
2019-05-23T03:03:32.254Z,66.06
2019-05-23T03:05:58.761Z,66.15
2019-05-23T03:08:24.490Z,65.99
2019-05-23T03:11:10.152Z,65.97
2019-05-23T03:13:36.504Z,65.53
2019-05-23T03:16:02.078Z,65.69
2019-05-23T03:18:34.070Z,65.63
2019-05-23T03:20:58.656Z,66.07
2019-05-23T03:23:23.730Z,66.09
2019-05-23T03:26:01.737Z,66.11
2019-05-23T03:28:27.564Z,66.05
2019-05-23T03:31:24.315Z,65.96
2019-05-23T03:33:20.943Z,65.63
2019-05-23T03:36:01.586Z,65.88
2019-05-23T03:38:26.975Z,66.04
2019-05-23T03:40:52.531Z,65.96
2019-05-23T03:43:17.482Z,66.17
2019-05-23T03:45:51.261Z,66.20
2019-05-23T03:48:15.856Z,65.91
2019-05-23T03:50:41.542Z,65.76
2019-05-23T03:53:08.161Z,65.55
2019-05-23T03:55:32.855Z,66.36
2019-05-23T03:57:57.495Z,66.17
2019-05-23T04:00:23.822Z,66.16
2019-05-23T04:02:50.367Z,66.04
2019-05-23T04:05:15.116Z,66.27
2019-05-23T04:07:41.205Z,66.58
2019-05-23T04:10:11.006Z,66.62
2019-05-23T04:12:35.880Z,66.93
2019-05-23T04:15:00.347Z,67.06
2019-05-23T04:17:24.825Z,67.10
2019-05-23T04:19:49.704Z,67.38
2019-05-23T04:22:14.222Z,67.89
2019-05-23T04:24:38.866Z,67.08
2019-05-23T04:27:04.349Z,66.92
2019-05-23T04:29:29.241Z,66.76
2019-05-23T04:32:06.853Z,66.97
2019-05-23T04:34:21.140Z,67.60
2019-05-23T04:36:46.633Z,68.16
2019-05-23T04:39:11.270Z,67.41
2019-05-23T04:41:35.872Z,67.58
2019-05-23T04:44:00.344Z,67.29
2019-05-23T04:46:25.524Z,67.43
2019-05-23T04:48:50.610Z,67.97
2019-05-23T04:51:15.835Z,68.45
2019-05-23T04:53:40.858Z,69.08
2019-05-23T04:56:06.210Z,69.60
2019-05-23T04:58:31.557Z,69.76
2019-05-23T05:00:56.134Z,69.35
2019-05-23T05:03:21.537Z,68.94
2019-05-23T05:05:46.954Z,68.26
2019-05-23T05:08:11.770Z,68.37
2019-05-23T05:10:36.654Z,68.66
2019-05-23T05:13:01.751Z,69.98
2019-05-23T05:15:26.502Z,69.49
2019-05-23T05:17:51.725Z,68.93
2019-05-23T05:20:17.140Z,68.89
2019-05-23T05:22:42.206Z,69.75
2019-05-23T05:25:08.596Z,69.72
2019-05-23T05:27:34.477Z,69.57
2019-05-23T05:29:59.088Z,69.76
2019-05-23T05:32:24.138Z,69.01
2019-05-23T05:34:48.966Z,70.27
2019-05-23T05:37:13.553Z,69.68
2019-05-23T05:39:38.387Z,70.65
2019-05-23T05:42:02.890Z,70.34
2019-05-23T05:44:27.714Z,71.18
2019-05-23T05:46:52.754Z,71.71
2019-05-23T05:49:17.449Z,71.78
2019-05-23T05:51:42.308Z,71.47
2019-05-23T05:54:07.258Z,72.11
2019-05-23T05:56:31.798Z,71.10
2019-05-23T05:58:56.335Z,70.90
2019-05-23T06:01:33.219Z,71.62
